METAR Data
IDs: Format: Raw Decoded Include TAF

Data at: 0838 UTC 07 Apr 2020

KRZL 070835Z AUTO 00000KT 10SM OVC050 13/11 A2985 RMK AO2 LTG DSNT NE